Time;durP1;ratioP1;P1;durP2;ratioP2;P2;SDS_P1;SDS_P2;PMS_P1;PMS_P2;Temp;Humidity;BMP_temperature;BMP_pressure;BME280_temperature;BME280_humidity;BME280_pressure;Samples;Min_cycle;Max_cycle;Signal;HPM_P1;HPM_P2
2022/03/12 00:01:15;;;;;;;19.50;9.60;;;2.70;92.40;;;;;;4975772;28;20451;-71
2022/03/12 00:03:42;;;;;;;18.43;9.73;;;2.70;92.40;;;;;;4972692;28;20476;-71
2022/03/12 00:06:10;;;;;;;18.60;9.00;;;2.70;92.30;;;;;;4973093;28;20487;-71
2022/03/12 00:08:42;;;;;;;18.77;9.40;;;2.70;91.70;;;;;;4973037;28;20463;-71
2022/03/12 00:11:11;;;;;;;13.50;8.47;;;2.80;90.90;;;;;;4973121;28;20831;-70
2022/03/12 00:13:38;;;;;;;13.20;7.73;;;2.80;90.70;;;;;;4972477;28;20492;-70
2022/03/12 00:16:08;;;;;;;14.10;7.00;;;2.90;90.00;;;;;;4976849;28;20504;-70
2022/03/12 00:18:36;;;;;;;14.60;7.37;;;3.00;88.60;;;;;;4973089;28;20448;-71
2022/03/12 00:21:04;;;;;;;9.67;6.80;;;3.10;88.10;;;;;;4972762;28;21122;-71
2022/03/12 00:23:30;;;;;;;17.63;8.67;;;3.10;87.80;;;;;;4976412;28;21010;-70
2022/03/12 00:25:58;;;;;;;18.83;8.00;;;3.20;87.70;;;;;;4969999;28;20472;-71
2022/03/12 00:28:25;;;;;;;15.20;8.33;;;3.20;87.80;;;;;;4972635;28;20646;-70
2022/03/12 00:30:53;;;;;;;13.63;7.90;;;3.20;87.50;;;;;;4976951;28;20479;-71
2022/03/12 00:33:20;;;;;;;12.60;7.63;;;3.20;87.60;;;;;;4972277;28;20479;-70
2022/03/12 00:35:48;;;;;;;15.77;7.17;;;3.20;87.40;;;;;;4972989;28;20459;-71
2022/03/12 00:38:17;;;;;;;12.90;7.00;;;3.20;87.10;;;;;;4972533;28;20502;-70
2022/03/12 00:40:44;;;;;;;12.20;7.57;;;3.20;87.10;;;;;;4972862;28;20509;-70
2022/03/12 00:43:11;;;;;;;14.20;7.40;;;3.10;86.90;;;;;;4972378;28;20510;-71
2022/03/12 00:45:39;;;;;;;12.30;7.10;;;3.20;86.90;;;;;;4977246;28;20449;-71
2022/03/12 00:48:06;;;;;;;12.50;7.27;;;3.10;86.50;;;;;;4972448;28;20918;-71
2022/03/12 00:50:33;;;;;;;13.73;7.80;;;3.10;86.40;;;;;;4972159;28;20463;-70
2022/03/12 00:53:00;;;;;;;12.37;7.50;;;3.10;86.10;;;;;;4972217;28;20445;-70
2022/03/12 00:55:28;;;;;;;12.17;7.47;;;3.10;85.70;;;;;;4972244;28;20492;-72
2022/03/12 00:57:55;;;;;;;11.33;7.43;;;3.10;85.70;;;;;;4972132;28;20626;-71
2022/03/12 01:00:24;;;;;;;12.20;7.00;;;3.10;86.00;;;;;;4971989;28;20483;-71
2022/03/12 01:02:52;;;;;;;16.50;8.13;;;3.00;86.90;;;;;;4972285;28;20983;-71
2022/03/12 01:05:24;;;;;;;19.40;9.20;;;3.00;86.80;;;;;;4971448;28;20957;-71
2022/03/12 01:07:51;;;;;;;12.33;8.50;;;3.00;88.00;;;;;;4978555;28;20471;-71
2022/03/12 01:10:17;;;;;;;9.73;7.30;;;3.00;88.20;;;;;;4972070;28;20828;-70
2022/03/12 01:12:46;;;;;;;13.50;7.53;;;3.00;88.90;;;;;;4975209;28;20456;-71
2022/03/12 01:15:13;;;;;;;12.33;8.13;;;3.00;89.80;;;;;;4971467;28;20488;-71
2022/03/12 01:17:40;;;;;;;10.20;7.23;;;2.90;90.20;;;;;;4971792;28;20484;-71
2022/03/12 01:20:08;;;;;;;15.13;8.30;;;2.90;90.50;;;;;;4971819;28;20456;-71
2022/03/12 01:22:39;;;;;;;14.47;7.57;;;2.80;90.20;;;;;;4971877;28;20455;-71
2022/03/12 01:25:08;;;;;;;10.77;7.00;;;2.80;90.30;;;;;;4966170;28;20463;-71
2022/03/12 01:27:34;;;;;;;18.37;8.30;;;2.70;90.50;;;;;;4971830;28;20478;-71
2022/03/12 01:30:06;;;;;;;14.10;7.67;;;2.80;90.80;;;;;;4965490;28;20460;-71
2022/03/12 01:32:32;;;;;;;15.47;9.27;;;2.80;90.70;;;;;;4970620;28;20845;-71
2022/03/12 01:34:59;;;;;;;13.40;7.70;;;2.60;90.40;;;;;;4971172;28;20480;-71
2022/03/12 01:37:26;;;;;;;14.53;8.03;;;2.60;90.90;;;;;;4971449;28;20479;-71
2022/03/12 01:39:53;;;;;;;16.40;9.20;;;2.60;91.30;;;;;;4976634;28;20523;-71
2022/03/12 01:42:21;;;;;;;17.77;8.60;;;2.60;91.60;;;;;;4971351;28;20510;-71
2022/03/12 01:44:50;;;;;;;12.33;8.10;;;2.60;92.00;;;;;;4971210;28;20527;-71
2022/03/12 01:47:19;;;;;;;11.00;7.23;;;2.60;92.00;;;;;;4971622;28;20479;-71
2022/03/12 01:49:48;;;;;;;15.60;8.73;;;2.60;91.70;;;;;;4971258;28;20456;-71
2022/03/12 01:52:15;;;;;;;12.67;7.47;;;2.60;91.40;;;;;;4971537;28;20456;-71
2022/03/12 01:54:42;;;;;;;12.40;7.50;;;2.60;90.70;;;;;;4970766;28;21000;-71
2022/03/12 01:57:09;;;;;;;15.97;7.47;;;2.60;90.20;;;;;;4971150;28;20488;-71
2022/03/12 01:59:36;;;;;;;11.33;7.30;;;2.60;89.80;;;;;;4973723;28;20831;-71
2022/03/12 02:02:08;;;;;;;11.10;6.60;;;2.60;89.50;;;;;;4969088;28;20460;-71
2022/03/12 02:04:38;;;;;;;14.67;6.70;;;2.70;89.30;;;;;;4970983;28;20499;-71
2022/03/12 02:07:05;;;;;;;16.20;6.87;;;2.80;89.40;;;;;;4968758;28;20480;-71
2022/03/12 02:09:32;;;;;;;13.93;7.27;;;2.80;89.00;;;;;;4976279;28;20514;-71
2022/03/12 02:11:59;;;;;;;11.67;6.50;;;2.80;89.30;;;;;;4976562;28;20523;-71
2022/03/12 02:14:27;;;;;;;23.53;8.20;;;2.70;89.40;;;;;;4970698;28;20492;-71
2022/03/12 02:16:56;;;;;;;10.07;7.00;;;2.70;89.60;;;;;;4971010;28;20944;-71
2022/03/12 02:19:25;;;;;;;15.63;7.30;;;2.70;90.00;;;;;;4975834;28;20447;-71
2022/03/12 02:21:54;;;;;;;13.10;6.93;;;2.70;90.20;;;;;;4966708;28;20991;-71
2022/03/12 02:24:25;;;;;;;11.40;6.63;;;2.70;90.40;;;;;;4970761;28;20530;-71
2022/03/12 02:26:53;;;;;;;10.40;7.03;;;2.70;90.80;;;;;;4972484;28;20880;-71
2022/03/12 02:29:22;;;;;;;16.37;7.40;;;2.80;90.80;;;;;;4976053;28;20452;-70
2022/03/12 02:31:50;;;;;;;10.53;6.80;;;2.80;90.70;;;;;;4974943;28;20486;-71
2022/03/12 02:34:21;;;;;;;10.13;6.40;;;2.80;90.60;;;;;;4970018;28;20484;-71
2022/03/12 02:36:49;;;;;;;17.03;7.00;;;2.70;90.30;;;;;;4970810;28;20482;-71
2022/03/12 02:39:16;;;;;;;10.20;6.77;;;2.70;90.50;;;;;;4974549;28;20506;-71
2022/03/12 02:41:44;;;;;;;12.57;7.43;;;2.60;90.50;;;;;;4971321;28;20814;-71
2022/03/12 02:44:18;;;;;;;11.90;6.50;;;2.60;90.40;;;;;;4972878;28;20456;-71
2022/03/12 02:47:11;;;;;;;13.17;7.40;;;2.60;90.20;;;;;;4974356;28;20494;-71
2022/03/12 02:49:41;;;;;;;14.50;6.33;;;2.60;90.30;;;;;;4977636;28;20456;-71
2022/03/12 02:52:08;;;;;;;9.73;6.50;;;2.60;90.50;;;;;;4974754;28;20455;-71
2022/03/12 02:54:36;;;;;;;12.23;6.73;;;2.60;91.00;;;;;;4974239;28;20483;-71
2022/03/12 02:57:04;;;;;;;8.73;6.43;;;2.60;91.10;;;;;;4968751;28;20490;-71
2022/03/12 02:59:32;;;;;;;11.10;6.10;;;2.60;90.60;;;;;;4979149;28;20542;-71
2022/03/12 03:02:00;;;;;;;10.83;6.80;;;2.60;90.00;;;;;;4975449;28;20534;-70
2022/03/12 03:04:27;;;;;;;9.43;6.10;;;2.60;89.30;;;;;;4976400;28;20487;-71
2022/03/12 03:06:53;;;;;;;9.00;5.67;;;2.70;89.30;;;;;;4973162;28;20483;-70
2022/03/12 03:09:20;;;;;;;10.93;6.50;;;2.70;89.20;;;;;;4976388;28;20852;-70
2022/03/12 03:11:47;;;;;;;7.67;5.90;;;2.80;89.90;;;;;;4975404;28;20482;-71
2022/03/12 03:14:15;;;;;;;9.23;6.17;;;3.10;90.10;;;;;;4969338;28;20502;-71
2022/03/12 03:16:42;;;;;;;10.10;6.43;;;2.80;90.00;;;;;;4974022;28;20563;-71
2022/03/12 03:19:09;;;;;;;11.10;6.70;;;2.90;90.10;;;;;;4976203;28;20832;-71
2022/03/12 03:21:37;;;;;;;6.70;5.87;;;2.90;90.20;;;;;;4975035;28;20456;-71
2022/03/12 03:24:06;;;;;;;10.77;7.33;;;2.90;89.50;;;;;;4975448;28;20971;-71
2022/03/12 03:26:51;;;;;;;9.83;6.30;;;2.90;88.90;;;;;;4976640;28;20532;-71
2022/03/12 03:29:20;;;;;;;9.77;6.67;;;2.90;88.90;;;;;;4973459;28;20452;-71
2022/03/12 03:31:48;;;;;;;16.20;7.13;;;2.90;89.60;;;;;;4974000;28;20546;-71
2022/03/12 03:34:15;;;;;;;11.27;6.73;;;3.00;90.10;;;;;;4973495;28;20918;-71
2022/03/12 03:36:42;;;;;;;9.53;5.73;;;3.00;88.90;;;;;;4975689;28;20471;-72
2022/03/12 03:39:09;;;;;;;12.27;7.23;;;3.10;88.30;;;;;;4975285;28;20459;-71
2022/03/12 03:41:36;;;;;;;10.40;6.97;;;3.20;87.10;;;;;;4975504;28;20955;-71
2022/03/12 03:44:05;;;;;;;11.47;5.97;;;3.20;87.00;;;;;;4973360;28;20956;-71
2022/03/12 03:46:34;;;;;;;9.50;6.57;;;3.20;86.80;;;;;;4975953;28;20474;-71
2022/03/12 03:49:01;;;;;;;10.20;6.33;;;3.20;86.60;;;;;;4974917;28;20448;-71
2022/03/12 03:51:28;;;;;;;12.07;6.80;;;3.20;86.80;;;;;;4975055;28;20885;-71
2022/03/12 03:53:54;;;;;;;10.30;6.10;;;3.20;87.60;;;;;;4975025;28;21088;-71
2022/03/12 03:56:21;;;;;;;10.30;6.97;;;3.20;87.20;;;;;;4972807;28;21055;-71
2022/03/12 03:58:48;;;;;;;10.07;6.80;;;3.30;87.10;;;;;;4977325;28;20452;-71
2022/03/12 04:01:18;;;;;;;11.47;6.20;;;3.30;86.90;;;;;;4975537;28;20507;-71
2022/03/12 04:03:48;;;;;;;9.20;6.07;;;3.30;86.50;;;;;;4975073;28;20468;-71
2022/03/12 04:06:15;;;;;;;8.90;6.10;;;3.30;86.60;;;;;;4973165;28;20492;-71
2022/03/12 04:08:42;;;;;;;30.20;7.60;;;3.30;86.40;;;;;;4976201;28;20501;-71
2022/03/12 04:11:14;;;;;;;12.47;6.60;;;3.20;87.10;;;;;;4973777;28;20459;-71
2022/03/12 04:13:41;;;;;;;8.90;6.30;;;3.20;86.80;;;;;;4973055;28;20983;-70
2022/03/12 04:16:08;;;;;;;7.20;6.07;;;3.20;86.20;;;;;;4973264;28;20496;-70
2022/03/12 04:18:36;;;;;;;8.83;6.20;;;3.20;86.20;;;;;;4974844;28;20451;-71
2022/03/12 04:21:05;;;;;;;11.40;6.37;;;3.20;84.90;;;;;;4973311;28;20456;-71
2022/03/12 04:23:32;;;;;;;8.17;5.60;;;3.20;85.10;;;;;;4972295;28;20463;-71
2022/03/12 04:25:59;;;;;;;8.73;6.60;;;3.20;85.40;;;;;;4972809;28;21058;-71
2022/03/12 04:28:29;;;;;;;8.70;6.00;;;3.20;85.20;;;;;;4972738;28;20460;-71
2022/03/12 04:30:55;;;;;;;10.33;6.73;;;3.20;85.10;;;;;;4972379;28;20484;-71
2022/03/12 04:33:22;;;;;;;15.70;6.00;;;3.20;85.00;;;;;;4976919;28;20457;-71
2022/03/12 04:35:51;;;;;;;10.70;6.10;;;3.10;85.00;;;;;;4972417;28;20492;-71
2022/03/12 04:38:19;;;;;;;12.73;6.90;;;3.10;84.60;;;;;;4972793;28;20452;-71
2022/03/12 04:40:46;;;;;;;9.13;5.63;;;3.10;85.00;;;;;;4974167;28;20530;-71
2022/03/12 04:43:14;;;;;;;10.37;6.07;;;3.10;85.00;;;;;;4972429;28;20459;-71
2022/03/12 04:45:43;;;;;;;10.53;7.00;;;3.00;84.90;;;;;;4971111;28;20885;-70
2022/03/12 04:48:12;;;;;;;11.27;6.77;;;3.00;84.90;;;;;;4972702;28;20484;-71
2022/03/12 04:50:39;;;;;;;9.90;6.47;;;3.00;85.10;;;;;;4973658;28;20455;-71
2022/03/12 04:53:06;;;;;;;8.50;6.67;;;2.90;85.30;;;;;;4972645;28;20452;-71
2022/03/12 04:55:36;;;;;;;10.10;6.47;;;2.90;85.80;;;;;;4971969;28;20522;-72
2022/03/12 04:58:04;;;;;;;11.90;6.67;;;2.80;86.20;;;;;;4974912;28;20460;-73
2022/03/12 05:00:38;;;;;;;10.13;6.10;;;2.70;86.50;;;;;;4973450;28;20886;-73
2022/03/12 05:03:07;;;;;;;20.90;6.27;;;2.70;86.70;;;;;;4972510;28;20467;-72
2022/03/12 05:05:34;;;;;;;11.50;6.30;;;2.60;86.70;;;;;;4976914;28;20526;-72
2022/03/12 05:08:01;;;;;;;12.00;6.70;;;2.60;86.70;;;;;;4971233;28;20507;-73
2022/03/12 05:10:29;;;;;;;14.07;6.57;;;2.50;86.70;;;;;;4972342;28;20510;-73
2022/03/12 05:13:00;;;;;;;8.97;6.47;;;2.50;86.70;;;;;;4974594;28;20475;-73
2022/03/12 05:15:31;;;;;;;7.87;5.50;;;2.40;87.00;;;;;;4970112;28;20570;-73
2022/03/12 05:17:58;;;;;;;7.80;5.80;;;2.40;86.60;;;;;;4972027;28;20902;-72
2022/03/12 05:20:27;;;;;;;9.90;6.40;;;2.40;86.90;;;;;;4976011;28;20554;-73
2022/03/12 05:22:54;;;;;;;8.20;5.93;;;2.30;87.10;;;;;;4974453;28;20499;-72
2022/03/12 05:25:21;;;;;;;9.77;6.23;;;2.20;87.10;;;;;;4971893;28;20456;-73
2022/03/12 05:27:49;;;;;;;9.67;6.27;;;2.20;87.40;;;;;;4973700;28;20472;-73
2022/03/12 05:30:17;;;;;;;10.50;5.23;;;2.10;87.50;;;;;;4975281;28;20456;-72
2022/03/12 05:32:44;;;;;;;8.80;5.90;;;2.10;87.90;;;;;;4971697;28;20460;-72
2022/03/12 05:35:11;;;;;;;12.63;6.70;;;2.00;88.10;;;;;;4971054;28;21000;-73
2022/03/12 05:37:38;;;;;;;12.63;6.10;;;1.90;88.30;;;;;;4971348;28;20476;-72
2022/03/12 05:40:07;;;;;;;10.30;6.60;;;1.90;88.50;;;;;;4969298;28;20464;-71
2022/03/12 05:42:34;;;;;;;8.83;6.00;;;1.90;88.80;;;;;;4971058;28;20848;-71
2022/03/12 05:45:02;;;;;;;11.00;6.20;;;1.80;89.10;;;;;;4973903;28;20469;-71
2022/03/12 05:47:34;;;;;;;10.70;6.70;;;1.80;89.30;;;;;;4971066;28;20480;-71
2022/03/12 05:50:01;;;;;;;22.23;7.30;;;1.80;89.70;;;;;;4972658;28;20456;-71
2022/03/12 05:52:28;;;;;;;11.60;6.53;;;1.80;90.00;;;;;;4971324;28;20456;-71
2022/03/12 05:54:54;;;;;;;12.83;6.50;;;1.80;90.00;;;;;;4972981;28;20817;-71
2022/03/12 05:57:21;;;;;;;11.03;6.20;;;1.80;90.00;;;;;;4971206;28;20992;-71
2022/03/12 05:59:49;;;;;;;11.47;6.27;;;1.80;90.10;;;;;;4971975;28;20836;-71
2022/03/12 06:02:16;;;;;;;7.50;5.73;;;1.80;90.20;;;;;;4977231;28;20491;-71
2022/03/12 06:04:45;;;;;;;11.17;6.67;;;1.70;90.30;;;;;;4971180;28;20456;-71
2022/03/12 06:07:11;;;;;;;14.00;7.57;;;1.70;90.50;;;;;;4971406;28;20555;-71
2022/03/12 06:09:38;;;;;;;10.33;5.70;;;1.70;90.60;;;;;;4974648;28;20451;-71
2022/03/12 06:12:07;;;;;;;9.50;5.90;;;1.70;90.70;;;;;;4972700;28;20546;-71
2022/03/12 06:14:36;;;;;;;12.40;6.40;;;1.70;90.80;;;;;;4968898;28;20957;-71
2022/03/12 06:17:03;;;;;;;9.73;7.03;;;1.80;90.90;;;;;;4975452;28;20559;-71
2022/03/12 06:19:30;;;;;;;11.97;6.90;;;1.80;91.40;;;;;;4973981;28;20452;-72
2022/03/12 06:21:58;;;;;;;10.43;6.30;;;1.80;91.50;;;;;;4970884;28;20464;-71
2022/03/12 06:24:26;;;;;;;9.00;6.20;;;1.80;91.60;;;;;;4970365;28;20727;-71
2022/03/12 06:26:52;;;;;;;8.03;5.83;;;1.80;91.30;;;;;;4972641;28;20472;-71
2022/03/12 06:29:19;;;;;;;10.10;6.07;;;1.90;91.10;;;;;;4971588;28;20456;-71
2022/03/12 06:31:46;;;;;;;9.93;6.70;;;2.00;91.70;;;;;;4970743;28;20456;-72
2022/03/12 06:34:12;;;;;;;9.97;5.90;;;2.10;91.50;;;;;;4972562;28;20456;-72
2022/03/12 06:36:40;;;;;;;11.03;6.80;;;2.10;90.60;;;;;;4972375;28;20492;-72
2022/03/12 06:39:09;;;;;;;10.20;6.40;;;2.10;90.50;;;;;;4971752;28;20551;-72
2022/03/12 06:41:42;;;;;;;9.87;6.33;;;2.20;90.30;;;;;;4970850;28;20483;-72
2022/03/12 06:44:08;;;;;;;11.13;6.33;;;2.40;90.30;;;;;;4970773;28;20479;-72
2022/03/12 06:46:35;;;;;;;9.10;5.73;;;2.90;90.10;;;;;;4971542;28;20518;-71
2022/03/12 06:49:03;;;;;;;8.07;5.90;;;3.40;88.70;;;;;;4972595;28;20518;-71
2022/03/12 06:51:30;;;;;;;15.73;6.40;;;4.00;88.00;;;;;;4971372;28;20869;-71
2022/03/12 06:53:56;;;;;;;12.30;6.23;;;4.50;87.50;;;;;;4969400;28;20452;-71
2022/03/12 06:56:24;;;;;;;17.50;6.50;;;5.20;86.10;;;;;;4970595;28;20996;-72
2022/03/12 06:58:51;;;;;;;12.17;5.70;;;5.80;82.90;;;;;;4972320;28;20468;-71
2022/03/12 07:01:18;;;;;;;9.57;5.60;;;6.30;82.10;;;;;;4970809;28;20464;-71
2022/03/12 07:03:45;;;;;;;12.93;5.80;;;6.80;80.50;;;;;;4970071;28;20500;-71
2022/03/12 07:06:11;;;;;;;13.40;6.57;;;7.10;79.20;;;;;;4970160;28;20476;-72
2022/03/12 07:08:38;;;;;;;12.00;6.80;;;7.10;79.00;;;;;;4972103;28;20459;-72
2022/03/12 07:11:06;;;;;;;12.23;7.00;;;7.10;78.50;;;;;;4969425;28;20937;-71
2022/03/12 07:13:35;;;;;;;19.23;6.67;;;7.20;77.30;;;;;;4969135;28;20467;-70
2022/03/12 07:16:02;;;;;;;13.33;6.60;;;7.10;77.70;;;;;;4969973;28;21029;-70
2022/03/12 07:18:29;;;;;;;8.73;6.13;;;7.10;78.00;;;;;;4970715;28;20552;-70
2022/03/12 07:20:56;;;;;;;9.70;6.40;;;7.30;78.00;;;;;;4970442;28;20483;-70
2022/03/12 07:23:23;;;;;;;10.70;6.07;;;7.40;77.70;;;;;;4969747;28;21141;-70
2022/03/12 07:25:50;;;;;;;9.60;5.97;;;7.40;76.30;;;;;;4969297;28;20952;-70
2022/03/12 07:28:19;;;;;;;9.10;5.30;;;7.50;75.10;;;;;;4969877;28;20518;-72
2022/03/12 07:30:47;;;;;;;9.50;6.03;;;7.60;74.10;;;;;;4973468;28;20510;-72
2022/03/12 07:33:13;;;;;;;8.07;6.17;;;7.60;74.40;;;;;;4978965;28;20460;-72
2022/03/12 07:35:40;;;;;;;11.07;6.00;;;7.70;75.10;;;;;;4973430;28;20880;-73
2022/03/12 07:38:07;;;;;;;8.33;5.60;;;7.90;74.40;;;;;;4977344;28;20502;-73
2022/03/12 07:40:34;;;;;;;17.40;6.23;;;7.90;73.70;;;;;;4973795;28;20810;-74
2022/03/12 07:43:01;;;;;;;8.40;5.97;;;7.60;73.00;;;;;;4972305;28;20456;-75
2022/03/12 07:45:27;;;;;;;8.30;5.77;;;7.40;73.60;;;;;;4972953;28;20456;-73
2022/03/12 07:47:55;;;;;;;9.17;5.77;;;7.20;73.70;;;;;;4973102;28;20475;-75
2022/03/12 07:50:22;;;;;;;8.80;6.00;;;7.20;74.20;;;;;;4973638;28;20456;-74
2022/03/12 07:52:50;;;;;;;9.60;6.00;;;7.10;73.80;;;;;;4975666;28;20961;-74
2022/03/12 07:55:18;;;;;;;10.20;6.33;;;7.10;74.30;;;;;;4974372;28;20523;-73
2022/03/12 07:57:44;;;;;;;14.13;6.33;;;7.10;74.50;;;;;;4973664;28;20980;-74
2022/03/12 08:00:14;;;;;;;9.10;6.23;;;7.00;73.60;;;;;;4972464;28;20471;-74
2022/03/12 08:02:41;;;;;;;8.52;5.88;;;6.90;73.80;;;;;;4978179;28;20531;-73
2022/03/12 08:05:10;;;;;;;10.07;6.50;;;6.80;74.50;;;;;;4972843;28;20632;-75
2022/03/12 08:07:37;;;;;;;9.57;6.20;;;6.80;74.50;;;;;;4976641;28;20487;-74
2022/03/12 08:10:05;;;;;;;9.43;5.80;;;6.80;73.90;;;;;;4972868;28;20539;-74
2022/03/12 08:12:35;;;;;;;11.00;6.20;;;6.80;73.50;;;;;;4972499;28;20849;-77
2022/03/12 08:15:06;;;;;;;9.23;6.30;;;6.80;74.30;;;;;;4972111;28;20452;-75
2022/03/12 08:17:33;;;;;;;11.87;5.53;;;6.80;73.00;;;;;;4968552;28;20503;-74
2022/03/12 08:20:00;;;;;;;8.90;5.90;;;6.60;72.70;;;;;;4972669;28;20460;-74
2022/03/12 08:22:28;;;;;;;8.70;5.80;;;6.70;73.70;;;;;;4973240;28;20448;-74
2022/03/12 08:24:55;;;;;;;10.23;5.80;;;7.00;73.40;;;;;;4976274;28;20455;-74
2022/03/12 08:27:22;;;;;;;10.23;6.03;;;7.10;72.80;;;;;;4972787;28;20554;-75
2022/03/12 08:29:48;;;;;;;10.20;5.80;;;7.20;73.30;;;;;;4973679;28;20479;-74
2022/03/12 08:32:15;;;;;;;9.93;6.17;;;7.20;72.80;;;;;;4972037;28;20483;-74
2022/03/12 08:34:42;;;;;;;9.53;5.77;;;7.00;72.80;;;;;;4977835;28;20526;-74
2022/03/12 08:37:09;;;;;;;7.77;5.43;;;6.90;73.70;;;;;;4972536;28;21059;-74
2022/03/12 08:39:38;;;;;;;15.93;6.00;;;6.90;73.40;;;;;;4972454;28;20463;-74
2022/03/12 08:42:05;;;;;;;10.70;6.77;;;7.20;75.00;;;;;;4972028;28;20455;-74
2022/03/12 08:44:32;;;;;;;11.10;6.83;;;7.20;74.50;;;;;;4973964;28;20518;-74
2022/03/12 08:46:59;;;;;;;12.03;6.80;;;7.40;74.50;;;;;;4969016;28;20472;-75
2022/03/12 08:49:25;;;;;;;9.87;6.00;;;7.50;73.50;;;;;;4962928;28;20454;-74
2022/03/12 08:51:52;;;;;;;13.57;6.20;;;7.50;74.30;;;;;;4971710;28;20452;-74
2022/03/12 08:54:19;;;;;;;7.90;6.20;;;7.70;74.00;;;;;;4967190;28;20505;-74
2022/03/12 08:56:47;;;;;;;10.73;6.30;;;8.00;74.70;;;;;;4964827;28;20995;-74
2022/03/12 08:59:14;;;;;;;12.70;7.60;;;8.20;73.90;;;;;;4970461;28;20507;-74
2022/03/12 09:01:41;;;;;;;7.87;5.67;;;8.30;74.10;;;;;;4966585;28;20455;-74
2022/03/12 09:04:07;;;;;;;11.30;7.07;;;8.40;73.30;;;;;;4967015;28;20466;-76
2022/03/12 09:06:34;;;;;;;12.33;6.80;;;8.30;73.90;;;;;;4970675;28;21004;-75
2022/03/12 09:09:01;;;;;;;14.07;8.00;;;8.20;74.00;;;;;;4969159;28;20452;-74
2022/03/12 09:11:27;;;;;;;11.07;6.77;;;8.30;74.60;;;;;;4968643;28;20455;-74
2022/03/12 09:13:55;;;;;;;10.47;7.23;;;8.30;74.90;;;;;;4966773;28;20526;-73
2022/03/12 09:16:22;;;;;;;10.30;7.03;;;8.40;75.20;;;;;;4966449;28;21036;-74
2022/03/12 09:18:50;;;;;;;8.63;6.53;;;8.70;75.40;;;;;;4969122;28;20456;-74
2022/03/12 09:21:17;;;;;;;16.23;7.00;;;8.70;74.40;;;;;;4970674;28;20464;-74
2022/03/12 09:23:44;;;;;;;12.87;7.07;;;8.80;75.00;;;;;;4972069;28;20452;-74
2022/03/12 09:26:13;;;;;;;8.83;6.40;;;8.80;75.60;;;;;;4970301;28;20480;-75
2022/03/12 09:28:40;;;;;;;11.20;6.60;;;8.90;75.50;;;;;;4971881;28;20451;-75
2022/03/12 09:31:09;;;;;;;14.27;6.90;;;9.10;75.90;;;;;;4972676;28;20203;-76
2022/03/12 09:33:36;;;;;;;11.50;7.20;;;9.10;75.70;;;;;;4971982;28;20460;-76
2022/03/12 09:36:03;;;;;;;9.83;6.63;;;8.90;76.10;;;;;;4971548;28;20484;-76
2022/03/12 09:38:30;;;;;;;11.37;7.37;;;8.70;76.00;;;;;;4971131;28;20873;-76
2022/03/12 09:40:57;;;;;;;11.33;7.33;;;8.70;77.40;;;;;;4969653;28;20480;-76
2022/03/12 09:43:23;;;;;;;9.10;6.83;;;8.60;77.10;;;;;;4984027;28;20451;-76
2022/03/12 09:45:50;;;;;;;10.80;7.00;;;8.70;77.60;;;;;;4971018;28;20452;-75
2022/03/12 09:48:18;;;;;;;15.67;7.30;;;8.70;77.10;;;;;;4971631;28;20480;-76
2022/03/12 09:50:45;;;;;;;9.80;7.60;;;9.00;78.30;;;;;;4971824;28;20459;-76
2022/03/12 09:53:12;;;;;;;10.00;6.73;;;9.50;78.30;;;;;;4970653;28;20978;-76
2022/03/12 09:55:39;;;;;;;13.60;8.23;;;9.90;78.30;;;;;;4971645;28;20456;-76
2022/03/12 09:58:06;;;;;;;12.23;7.27;;;10.10;75.90;;;;;;4969940;28;21026;-76
2022/03/12 10:00:33;;;;;;;11.80;7.97;;;10.40;75.40;;;;;;4971071;28;20531;-76
2022/03/12 10:03:00;;;;;;;11.53;7.43;;;10.60;76.60;;;;;;4973061;28;21121;-76
2022/03/12 10:05:28;;;;;;;12.40;7.50;;;10.40;75.70;;;;;;4970951;28;20960;-76
2022/03/12 10:07:55;;;;;;;12.37;8.03;;;10.50;77.30;;;;;;4970952;28;20505;-77
2022/03/12 10:10:22;;;;;;;10.10;7.27;;;10.20;76.50;;;;;;4971043;28;21079;-77
2022/03/12 10:12:50;;;;;;;10.20;7.70;;;10.30;77.50;;;;;;4971002;28;20460;-76
2022/03/12 10:15:18;;;;;;;12.37;7.70;;;10.60;78.10;;;;;;4970367;28;20452;-76
2022/03/12 10:17:47;;;;;;;9.90;7.30;;;10.50;77.20;;;;;;4972300;28;20495;-73
2022/03/12 10:20:15;;;;;;;12.43;7.93;;;10.80;81.80;;;;;;4969163;28;20514;-72
2022/03/12 10:22:45;;;;;;;9.87;7.30;;;11.00;79.10;;;;;;4970308;28;20459;-73
2022/03/12 10:25:12;;;;;;;15.13;7.43;;;11.20;76.90;;;;;;4973452;28;20462;-72
2022/03/12 10:27:39;;;;;;;18.80;8.77;;;11.30;76.40;;;;;;4970780;28;20617;-73
2022/03/12 10:30:07;;;;;;;17.90;7.83;;;11.20;76.50;;;;;;4970889;28;20460;-73
2022/03/12 10:32:41;;;;;;;11.10;7.53;;;11.20;78.30;;;;;;4972606;28;20452;-73
2022/03/12 10:35:10;;;;;;;12.10;7.50;;;11.10;77.50;;;;;;4970873;28;20701;-73
2022/03/12 10:37:37;;;;;;;15.20;8.30;;;10.80;77.40;;;;;;4970571;28;20519;-73
2022/03/12 10:40:11;;;;;;;11.63;8.07;;;10.80;77.90;;;;;;4971696;28;20515;-73
2022/03/12 10:42:47;;;;;;;13.00;8.13;;;11.00;78.10;;;;;;4972169;28;20452;-73
2022/03/12 10:45:16;;;;;;;10.20;7.50;;;11.20;79.80;;;;;;4964826;28;20459;-73
2022/03/12 10:47:45;;;;;;;16.83;8.87;;;11.30;79.40;;;;;;4967301;28;20467;-73
2022/03/12 10:50:15;;;;;;;9.90;8.07;;;11.70;76.40;;;;;;4971395;28;20502;-73
2022/03/12 10:52:46;;;;;;;15.97;8.57;;;11.60;77.60;;;;;;4974868;28;20456;-74
2022/03/12 10:55:18;;;;;;;10.07;7.80;;;11.70;79.10;;;;;;4973537;28;20460;-72
2022/03/12 10:58:03;;;;;;;12.57;8.27;;;11.90;78.40;;;;;;4972122;28;20483;-72
2022/03/12 11:00:32;;;;;;;12.93;7.80;;;11.90;78.40;;;;;;4968210;28;20451;-71
2022/03/12 11:03:01;;;;;;;13.87;8.53;;;11.90;77.70;;;;;;4970146;28;20539;-72
2022/03/12 11:05:29;;;;;;;10.57;7.83;;;12.00;78.70;;;;;;4971192;28;20489;-72
2022/03/12 11:08:07;;;;;;;19.87;8.83;;;12.40;77.20;;;;;;4974583;28;20554;-72
2022/03/12 11:10:37;;;;;;;13.90;8.57;;;12.30;76.20;;;;;;4974570;28;20486;-72
2022/03/12 11:13:04;;;;;;;12.57;8.73;;;12.30;79.90;;;;;;4981679;28;20843;-72
2022/03/12 11:15:33;;;;;;;18.20;8.43;;;12.60;76.60;;;;;;4972852;28;20980;-72
2022/03/12 11:18:06;;;;;;;12.73;7.93;;;12.70;77.60;;;;;;4974515;28;20492;-72
2022/03/12 11:20:36;;;;;;;12.90;7.90;;;12.50;76.90;;;;;;4974723;28;20460;-72
2022/03/12 11:23:08;;;;;;;11.57;8.63;;;12.60;76.80;;;;;;4973788;28;20830;-71
2022/03/12 11:25:37;;;;;;;11.90;7.80;;;12.40;79.00;;;;;;4993160;28;20505;-71
2022/03/12 11:28:20;;;;;;;12.63;9.00;;;12.40;79.60;;;;;;4993562;28;20454;-72
2022/03/12 11:30:48;;;;;;;17.83;8.57;;;12.70;77.80;;;;;;4988514;28;20495;-71
2022/03/12 11:33:15;;;;;;;13.03;8.70;;;12.60;77.70;;;;;;4973084;28;20498;-72
2022/03/12 11:35:45;;;;;;;12.73;8.20;;;12.70;78.80;;;;;;4974041;28;20456;-72
2022/03/12 11:38:17;;;;;;;14.40;8.70;;;13.00;77.00;;;;;;4974183;28;20495;-72
2022/03/12 11:40:47;;;;;;;13.13;8.87;;;12.90;78.10;;;;;;4987406;28;20971;-72
2022/03/12 11:43:23;;;;;;;15.50;8.50;;;12.90;78.60;;;;;;4976000;28;20456;-72
2022/03/12 11:45:49;;;;;;;10.80;8.20;;;13.10;79.00;;;;;;4989277;28;20462;-72
2022/03/12 11:48:17;;;;;;;11.97;8.43;;;13.40;78.30;;;;;;4992636;28;20879;-72
2022/03/12 11:50:43;;;;;;;14.73;9.00;;;13.80;78.30;;;;;;4980068;28;21021;-72
2022/03/12 11:53:16;;;;;;;14.20;9.10;;;13.80;77.20;;;;;;4974077;28;20452;-73
2022/03/12 11:55:47;;;;;;;14.60;8.27;;;13.80;77.20;;;;;;4974326;28;20456;-72
2022/03/12 11:58:14;;;;;;;15.07;8.87;;;13.80;79.70;;;;;;4974426;28;20817;-72
2022/03/12 12:00:40;;;;;;;13.27;9.20;;;14.10;78.10;;;;;;4974085;28;20452;-72
2022/03/12 12:03:07;;;;;;;14.23;8.97;;;14.30;78.10;;;;;;4988878;28;20526;-72
2022/03/12 12:05:34;;;;;;;13.50;9.30;;;14.30;78.20;;;;;;4985882;28;21062;-72
2022/03/12 12:08:01;;;;;;;15.30;9.67;;;14.30;77.30;;;;;;4988296;28;20458;-72
2022/03/12 12:10:30;;;;;;;14.47;9.43;;;14.00;77.00;;;;;;4993374;28;20459;-72
2022/03/12 12:12:59;;;;;;;11.60;8.77;;;13.80;79.10;;;;;;4988500;28;20456;-72
2022/03/12 12:15:31;;;;;;;15.90;9.33;;;13.80;79.20;;;;;;4973954;28;20520;-72
2022/03/12 12:17:58;;;;;;;12.73;9.70;;;13.90;80.10;;;;;;4989079;28;20494;-72
2022/03/12 12:20:27;;;;;;;12.17;9.27;;;14.20;78.50;;;;;;4992965;28;20466;-71
2022/03/12 12:22:53;;;;;;;14.73;8.93;;;14.60;77.40;;;;;;4985499;28;20452;-72
2022/03/12 12:25:20;;;;;;;13.83;9.93;;;14.80;77.30;;;;;;4972814;28;20464;-71
2022/03/12 12:27:49;;;;;;;13.20;9.57;;;14.90;77.40;;;;;;4986816;28;20546;-72
2022/03/12 12:30:38;;;;;;;15.87;9.30;;;15.00;79.40;;;;;;4986615;28;20466;-71
2022/03/12 12:33:14;;;;;;;13.20;9.23;;;14.90;77.90;;;;;;4973188;28;20492;-72
2022/03/12 12:35:41;;;;;;;12.40;8.57;;;15.00;79.60;;;;;;4973449;28;20918;-73
2022/03/12 12:38:09;;;;;;;13.40;9.47;;;15.20;77.50;;;;;;4989274;28;20483;-72
2022/03/12 12:40:43;;;;;;;16.50;9.70;;;15.20;78.00;;;;;;4972814;28;20459;-72
2022/03/12 12:43:13;;;;;;;13.33;9.00;;;15.30;79.00;;;;;;4972690;28;20452;-73
2022/03/12 12:46:08;;;;;;;14.10;9.47;;;14.90;79.50;;;;;;4973450;28;20460;-73
2022/03/12 12:48:40;;;;;;;16.90;10.60;;;15.10;79.20;;;;;;4972078;28;20459;-73
2022/03/12 12:51:10;;;;;;;13.93;9.90;;;15.50;78.70;;;;;;4969448;28;20437;-73
2022/03/12 12:53:39;;;;;;;16.10;9.70;;;15.20;79.10;;;;;;4966810;28;20471;-73